Terminal Aerodrome Forecast
Issued by NWS

Home | Current Version | Previous Version | Text Only | Print | Product List | Glossary On
Versions: 1 2 3 4 5 6 7 8 9 10 11 12 13 14 15 16
000
FTUS46 KLOX 260533
TAFWJF
TAF
KWJF 260533Z 2606/2706 23012G22KT P6SM SCT250
     FM260700 23015KT P6SM SCT250
     FM261000 25010KT P6SM SCT250
     FM261800 22012KT P6SM SCT250
     FM262100 23018G28KT P6SM SCT250
     FM270300 23012G22KT P6SM SCT250=

USA.gov is the U.S. government's official web portal to all federal, state and local government web resources and services.